Time;durP1;ratioP1;P1;durP2;ratioP2;P2;SDS_P1;SDS_P2;PMS_P1;PMS_P2;Temp;Humidity;BMP_temperature;BMP_pressure;BME280_temperature;BME280_humidity;BME280_pressure;Samples;Min_cycle;Max_cycle;Signal;HPM_P1;HPM_P2
2022/12/15 00:39:18;;;;;;;34.22;22.52;;;;;;;-2.09;59.32;100584.25;5031082;28;20160;-59
2022/12/15 00:41:43;;;;;;;35.78;22.67;;;;;;;-2.07;59.86;100593.09;5027570;28;20033;-59
2022/12/15 00:44:08;;;;;;;32.30;21.85;;;;;;;-2.07;59.55;100594.97;5030291;28;20034;-60
2022/12/15 01:22:07;;;;;;;32.28;22.08;;;;;;;-2.04;59.65;100617.22;5030659;28;20056;-59
2022/12/15 01:24:33;;;;;;;36.42;22.02;;;;;;;-2.06;59.66;100619.25;5030104;28;20037;-60
2022/12/15 01:26:58;;;;;;;34.00;21.35;;;;;;;-2.08;59.79;100624.03;5029621;28;20035;-60
2022/12/15 01:29:24;;;;;;;34.08;22.02;;;;;;;-2.08;60.08;100623.19;5030537;28;20041;-60
2022/12/15 01:31:49;;;;;;;34.65;22.45;;;;;;;-2.09;60.11;100616.03;5025408;28;20073;-60
2022/12/15 01:34:16;;;;;;;32.17;22.75;;;;;;;-2.08;59.80;100617.75;5024858;28;20040;-59
2022/12/15 01:36:41;;;;;;;32.08;22.00;;;;;;;-2.10;60.04;100609.75;5029575;28;20057;-60
2022/12/15 01:39:06;;;;;;;33.40;22.92;;;;;;;-2.09;59.94;100616.88;5029405;28;20366;-60
2022/12/15 01:41:33;;;;;;;35.35;22.30;;;;;;;-2.10;59.80;100611.63;5029462;28;20049;-60
2022/12/15 01:44:19;;;;;;;38.30;23.38;;;;;;;-2.06;60.16;100597.50;5030624;28;20545;-60
2022/12/15 01:46:47;;;;;;;36.80;22.70;;;;;;;-2.11;60.39;100616.22;5032653;28;20030;-60
2022/12/15 01:49:17;;;;;;;33.92;22.17;;;;;;;-2.07;60.07;100622.16;5031338;28;20037;-60
2022/12/15 01:51:51;;;;;;;33.60;22.15;;;;;;;-2.06;60.04;100627.41;5029669;28;20025;-60
2022/12/15 01:54:29;;;;;;;36.15;22.83;;;;;;;-2.06;59.80;100634.72;5028683;28;20029;-60
2022/12/15 01:57:03;;;;;;;34.15;22.77;;;;;;;-2.06;59.86;100632.84;5030047;28;20034;-60
2022/12/15 01:59:34;;;;;;;32.58;22.63;;;;;;;-2.08;59.65;100628.63;5028925;28;20033;-60
2022/12/15 02:02:00;;;;;;;34.50;22.10;;;;;;;-2.10;59.44;100633.38;5028928;28;20029;-60
2022/12/15 02:04:26;;;;;;;32.92;22.52;;;;;;;-2.12;59.80;100638.13;5029134;28;20030;-60
2022/12/15 02:06:51;;;;;;;33.05;22.48;;;;;;;-2.12;59.61;100646.28;5026129;28;20084;-60
2022/12/15 02:09:19;;;;;;;36.47;22.63;;;;;;;-2.12;59.65;100646.28;5028970;28;20029;-60
2022/12/15 02:11:47;;;;;;;36.28;22.63;;;;;;;-2.14;59.61;100649.19;5029221;28;20040;-60
2022/12/15 02:14:24;;;;;;;36.35;22.45;;;;;;;-2.17;59.59;100654.13;5029464;28;20045;-60
2022/12/15 02:17:05;;;;;;;35.17;22.05;;;;;;;-2.20;59.74;100663.50;5027514;28;20120;-60
2022/12/15 02:20:06;;;;;;;31.70;21.65;;;;;;;-2.20;60.23;100658.06;5029396;28;20116;-60
2022/12/15 02:22:56;;;;;;;33.80;21.95;;;;;;;-2.16;60.08;100658.53;5027461;28;20069;-60
2022/12/15 02:25:42;;;;;;;36.67;22.33;;;;;;;-2.17;59.69;100660.41;5028498;28;20048;-60
2022/12/15 02:28:51;;;;;;;33.33;21.63;;;;;;;-2.15;60.09;100661.09;5029302;28;20167;-60
2022/12/15 02:34:32;;;;;;;34.53;22.25;;;;;;;-2.20;60.07;100665.34;5009632;28;20084;-60
2022/12/15 02:37:07;;;;;;;35.35;22.05;;;;;;;-2.19;59.90;100662.47;5016550;28;20479;-60
2022/12/15 02:39:33;;;;;;;35.75;21.92;;;;;;;-2.24;60.02;100662.13;5026373;28;20125;-60
2022/12/15 02:41:58;;;;;;;33.10;22.88;;;;;;;-2.25;59.35;100661.28;5025298;28;20112;-60
2022/12/15 02:44:28;;;;;;;31.85;22.48;;;;;;;-2.27;59.99;100668.78;5028257;28;20038;-60
2022/12/15 02:47:05;;;;;;;34.80;22.60;;;;;;;-2.24;60.19;100668.44;5029296;28;20088;-60
2022/12/15 02:49:34;;;;;;;33.58;22.15;;;;;;;-2.24;60.15;100665.72;5028891;28;20556;-60
2022/12/15 02:52:18;;;;;;;37.10;22.67;;;;;;;-2.24;60.03;100668.44;5028641;28;20489;-60
2022/12/15 02:55:07;;;;;;;35.17;22.25;;;;;;;-2.27;60.07;100673.38;5024803;28;20737;-60
2022/12/15 02:57:41;;;;;;;38.50;23.40;;;;;;;-2.27;60.19;100668.78;5016511;28;20045;-60
2022/12/15 03:00:09;;;;;;;31.05;21.67;;;;;;;-2.27;60.06;100674.22;5026881;28;20034;-60
2022/12/15 03:02:39;;;;;;;33.58;21.88;;;;;;;-2.29;59.91;100673.53;5012091;28;20548;-60
2022/12/15 03:05:05;;;;;;;36.47;22.75;;;;;;;-2.31;60.00;100667.44;5028559;28;20381;-60
2022/12/15 03:07:31;;;;;;;36.92;22.55;;;;;;;-2.35;60.19;100660.66;5026659;28;20053;-60
2022/12/15 03:09:59;;;;;;;31.98;21.52;;;;;;;-2.36;60.39;100655.38;5024725;28;20033;-60
2022/12/15 03:12:25;;;;;;;34.17;23.05;;;;;;;-2.34;59.95;100672.38;5029420;28;20037;-60
2022/12/15 03:14:50;;;;;;;36.08;22.50;;;;;;;-2.36;60.40;100680.69;5030363;28;20527;-60
2022/12/15 03:17:15;;;;;;;34.05;22.88;;;;;;;-2.33;59.98;100687.66;5027228;28;20025;-60
2022/12/15 03:19:41;;;;;;;36.65;22.40;;;;;;;-2.32;60.32;100687.50;5025016;28;20032;-60
2022/12/15 03:22:06;;;;;;;35.08;22.10;;;;;;;-2.30;60.13;100685.44;5029888;28;20063;-60
2022/12/15 03:24:31;;;;;;;35.03;22.88;;;;;;;-2.30;60.50;100684.59;5027935;28;20044;-60
2022/12/15 03:26:57;;;;;;;35.20;23.80;;;;;;;-2.32;60.25;100687.50;5028467;28;20053;-60
2022/12/15 03:29:22;;;;;;;31.83;22.08;;;;;;;-2.30;59.96;100690.88;5030179;28;20088;-60
2022/12/15 03:31:47;;;;;;;35.30;23.25;;;;;;;-2.30;60.17;100690.03;5030753;28;20079;-60
2022/12/15 03:34:13;;;;;;;34.97;23.80;;;;;;;-2.30;60.36;100684.59;5024140;28;20030;-60
2022/12/15 03:36:38;;;;;;;33.30;22.70;;;;;;;-2.31;60.63;100691.91;5028921;28;20080;-60
2022/12/15 03:39:04;;;;;;;32.95;22.60;;;;;;;-2.30;60.85;100695.47;5031520;28;20045;-60
2022/12/15 03:41:29;;;;;;;36.08;22.95;;;;;;;-2.28;61.08;100683.41;5029202;28;20079;-60
2022/12/15 03:43:54;;;;;;;37.35;23.10;;;;;;;-2.26;60.28;100694.94;5026105;28;20036;-60
2022/12/15 03:46:20;;;;;;;39.40;23.58;;;;;;;-2.28;60.34;100697.00;5029255;28;20563;-60
2022/12/15 03:48:45;;;;;;;36.22;22.63;;;;;;;-2.27;60.35;100695.97;5026945;28;20072;-60
2022/12/15 03:51:10;;;;;;;37.17;23.02;;;;;;;-2.31;60.22;100702.78;5025721;28;20042;-60
2022/12/15 03:53:35;;;;;;;35.13;23.38;;;;;;;-2.30;60.20;100703.63;5021780;28;20032;-60
2022/12/15 03:56:01;;;;;;;35.30;23.38;;;;;;;-2.28;60.39;100707.00;5029080;28;20417;-60
2022/12/15 03:58:26;;;;;;;35.80;22.50;;;;;;;-2.30;60.52;100699.03;5028706;28;20041;-60
2022/12/15 04:00:51;;;;;;;36.15;22.17;;;;;;;-2.33;60.53;100702.09;5029974;28;20400;-60
2022/12/15 04:03:16;;;;;;;34.58;23.40;;;;;;;-2.34;60.55;100694.13;5029124;28;20033;-60
2022/12/15 04:05:42;;;;;;;34.38;22.77;;;;;;;-2.31;60.70;100699.22;5029442;28;20176;-60
2022/12/15 04:08:07;;;;;;;34.33;22.50;;;;;;;-2.34;60.47;100694.97;5025080;28;20029;-60
2022/12/15 04:10:34;;;;;;;35.53;22.98;;;;;;;-2.35;60.11;100696.00;5029585;28;20053;-60
2022/12/15 04:13:01;;;;;;;35.97;23.75;;;;;;;-2.36;60.93;100691.56;5030956;28;20029;-60
2022/12/15 04:15:27;;;;;;;32.42;23.23;;;;;;;-2.38;60.66;100687.34;5030017;28;20040;-60
2022/12/15 04:17:53;;;;;;;35.08;23.33;;;;;;;-2.38;60.70;100682.75;5026179;28;20732;-60
2022/12/15 04:20:18;;;;;;;35.13;24.10;;;;;;;-2.37;60.22;100683.59;5028492;28;20108;-60
2022/12/15 04:22:47;;;;;;;36.72;24.08;;;;;;;-2.37;60.59;100684.44;5029359;28;20037;-60
2022/12/15 05:33:54;;;;;;;39.10;25.75;;;;;;;-2.53;61.39;100733.38;5030078;28;20037;-60
2022/12/15 05:36:19;;;;;;;38.20;27.00;;;;;;;-2.52;61.40;100725.03;5025690;28;20477;-60
2022/12/15 05:38:49;;;;;;;36.90;24.92;;;;;;;-2.53;61.53;100730.66;5026142;28;20040;-60
2022/12/15 05:41:15;;;;;;;40.65;25.92;;;;;;;-2.56;61.52;100728.28;5029191;28;20399;-60
2022/12/15 05:43:40;;;;;;;38.63;25.67;;;;;;;-2.56;61.50;100736.44;5028948;28;20033;-60
2022/12/15 05:46:06;;;;;;;39.15;25.55;;;;;;;-2.57;61.67;100737.47;5024949;28;20029;-60
2022/12/15 05:48:31;;;;;;;41.13;26.75;;;;;;;-2.57;61.96;100737.47;5030633;28;20408;-60
2022/12/15 05:50:56;;;;;;;37.97;26.48;;;;;;;-2.58;62.05;100736.59;5029825;28;20116;-60
2022/12/15 05:53:21;;;;;;;40.95;26.88;;;;;;;-2.58;61.91;100736.59;5022801;28;20080;-60
2022/12/15 05:55:47;;;;;;;41.05;26.95;;;;;;;-2.59;61.85;100739.50;5023069;28;20048;-61
2022/12/15 05:58:12;;;;;;;39.63;25.73;;;;;;;-2.58;62.00;100746.63;5022226;28;20120;-60
2022/12/15 06:00:37;;;;;;;40.58;26.05;;;;;;;-2.58;62.08;100746.63;5011594;28;20025;-60
2022/12/15 06:03:03;;;;;;;38.75;26.45;;;;;;;-2.60;62.45;100754.09;5025290;28;20041;-60
2022/12/15 06:05:28;;;;;;;39.95;25.88;;;;;;;-2.62;62.15;100754.28;5029756;28;20029;-60
2022/12/15 06:07:53;;;;;;;40.70;27.02;;;;;;;-2.61;61.98;100755.13;5028177;28;20033;-60
2022/12/15 06:10:19;;;;;;;39.17;25.88;;;;;;;-2.62;61.77;100762.44;5026989;28;20026;-61
2022/12/15 06:12:44;;;;;;;42.97;26.10;;;;;;;-2.63;62.12;100751.72;5019806;28;20582;-60
2022/12/15 06:15:10;;;;;;;42.22;26.63;;;;;;;-2.60;62.78;100744.06;5028363;28;20037;-60
2022/12/15 06:17:35;;;;;;;38.65;25.35;;;;;;;-2.58;62.52;100749.34;5026914;28;20034;-60
2022/12/15 06:20:01;;;;;;;38.78;26.50;;;;;;;-2.55;62.46;100747.16;5019683;28;20037;-60
2022/12/15 06:22:28;;;;;;;38.47;25.13;;;;;;;-2.56;62.42;100750.00;5023021;28;20036;-59
2022/12/15 06:24:54;;;;;;;43.05;25.38;;;;;;;-2.60;62.47;100749.50;5029448;28;20044;-60
2022/12/15 06:27:19;;;;;;;41.75;26.17;;;;;;;-2.61;62.66;100753.25;5029860;28;20377;-59
2022/12/15 06:29:44;;;;;;;39.38;25.85;;;;;;;-2.59;62.53;100753.94;5028382;28;20544;-60
2022/12/15 06:32:09;;;;;;;36.08;25.25;;;;;;;-2.59;62.43;100755.81;5028866;28;20026;-60
2022/12/15 06:34:35;;;;;;;41.08;27.13;;;;;;;-2.58;62.25;100758.34;5029863;28;20041;-59
2022/12/15 06:37:01;;;;;;;42.45;27.45;;;;;;;-2.58;62.32;100763.78;5022275;28;20054;-60
2022/12/15 06:39:26;;;;;;;40.53;25.35;;;;;;;-2.57;62.19;100762.75;5027082;28;20115;-60
2022/12/15 06:41:52;;;;;;;37.42;26.17;;;;;;;-2.57;61.91;100761.91;5029694;28;20120;-60
2022/12/15 06:44:17;;;;;;;38.60;25.05;;;;;;;-2.61;61.61;100758.69;5028523;28;20108;-60
2022/12/15 06:46:44;;;;;;;49.83;28.40;;;;;;;-2.61;61.61;100760.56;5031882;28;20039;-61
2022/12/15 06:49:10;;;;;;;42.50;27.52;;;;;;;-2.63;61.87;100765.28;5032802;28;20096;-60
2022/12/15 06:51:35;;;;;;;44.35;26.25;;;;;;;-2.65;62.75;100770.06;5032216;28;20188;-60
2022/12/15 06:54:00;;;;;;;38.22;24.30;;;;;;;-2.60;65.37;100768.53;5042916;28;20051;-60
2022/12/15 06:56:37;;;;;;;43.33;25.58;;;;;;;-2.63;63.47;100760.72;5024963;28;20031;-59
2022/12/15 06:59:04;;;;;;;36.72;26.20;;;;;;;-2.65;62.78;100761.91;5052509;28;20095;-60
2022/12/15 07:01:30;;;;;;;37.13;25.05;;;;;;;-2.63;62.97;100766.16;5036637;28;20385;-61
2022/12/15 07:03:58;;;;;;;37.33;25.23;;;;;;;-2.63;63.67;100770.72;5022236;28;20033;-61
2022/12/15 07:06:24;;;;;;;36.42;23.83;;;;;;;-2.62;62.75;100767.00;5025658;28;20493;-59
2022/12/15 07:08:51;;;;;;;42.05;24.90;;;;;;;-2.63;62.85;100768.88;5033371;28;20060;-62
2022/12/15 07:11:19;;;;;;;38.88;24.88;;;;;;;-2.63;62.65;100777.03;5023402;28;20852;-61
2022/12/15 07:13:51;;;;;;;38.92;26.08;;;;;;;-2.64;62.82;100774.47;5030256;28;20037;-61
2022/12/15 07:16:18;;;;;;;37.72;23.17;;;;;;;-2.65;62.73;100781.78;5015669;28;20025;-60
2022/12/15 07:18:44;;;;;;;39.33;24.95;;;;;;;-2.63;62.60;100779.75;5022992;28;20052;-60
2022/12/15 07:21:10;;;;;;;39.92;25.00;;;;;;;-2.61;62.71;100785.84;5024276;28;20026;-60
2022/12/15 07:23:40;;;;;;;37.33;25.23;;;;;;;-2.58;63.17;100781.97;5023927;28;20036;-61
2022/12/15 07:26:08;;;;;;;40.17;24.90;;;;;;;-2.61;62.93;100780.41;5025489;28;20138;-61
2022/12/15 07:28:35;;;;;;;35.28;24.08;;;;;;;-2.60;62.84;100781.25;5024138;28;20116;-61
2022/12/15 07:31:03;;;;;;;39.63;25.98;;;;;;;-2.64;63.22;100786.19;5023270;28;20041;-61
2022/12/15 07:33:31;;;;;;;41.08;24.77;;;;;;;-2.62;63.41;100783.31;5029237;28;20130;-61
2022/12/15 07:35:57;;;;;;;39.58;24.67;;;;;;;-2.62;63.56;100788.75;5031899;28;20121;-61
2022/12/15 07:38:22;;;;;;;39.88;25.65;;;;;;;-2.64;63.26;100785.34;5021388;28;20094;-60
2022/12/15 07:40:48;;;;;;;43.47;25.75;;;;;;;-2.63;63.38;100781.59;5023176;28;20029;-60
2022/12/15 07:43:13;;;;;;;41.25;25.83;;;;;;;-2.62;63.58;100791.47;5018798;28;20154;-61
2022/12/15 07:45:38;;;;;;;40.70;25.20;;;;;;;-2.58;63.07;100792.84;5023906;28;20534;-61
2022/12/15 07:48:04;;;;;;;43.67;25.88;;;;;;;-2.59;63.61;100791.13;5029262;28;20036;-61
2022/12/15 07:50:29;;;;;;;40.25;26.00;;;;;;;-2.60;63.30;100801.13;5024926;28;20060;-61
2022/12/15 07:52:54;;;;;;;44.40;27.38;;;;;;;-2.58;62.86;100793.66;5023726;28;20489;-61
2022/12/15 07:55:22;;;;;;;41.67;26.38;;;;;;;-2.58;62.99;100792.84;5011078;28;20072;-61
2022/12/15 07:57:48;;;;;;;39.78;25.85;;;;;;;-2.57;63.05;100791.81;5011108;28;20073;-61
2022/12/15 08:00:14;;;;;;;41.78;27.42;;;;;;;-2.58;63.57;100796.38;5019003;28;20057;-61
2022/12/15 08:02:40;;;;;;;40.85;26.10;;;;;;;-2.58;63.54;100806.41;5031201;28;20078;-61
2022/12/15 08:05:06;;;;;;;43.70;27.35;;;;;;;-2.56;63.20;100815.22;5031680;28;20497;-61
2022/12/15 08:07:32;;;;;;;43.15;27.67;;;;;;;-2.58;63.46;100812.69;5030227;28;20029;-61
2022/12/15 08:09:57;;;;;;;39.22;26.23;;;;;;;-2.54;63.52;100813.22;5023991;28;20045;-61
2022/12/15 08:12:22;;;;;;;46.75;27.52;;;;;;;-2.50;63.47;100811.84;5031325;28;20036;-61
2022/12/15 08:14:48;;;;;;;44.65;26.38;;;;;;;-2.51;63.66;100812.88;5028290;28;20037;-61
2022/12/15 08:17:13;;;;;;;39.47;26.77;;;;;;;-2.50;63.94;100812.69;5029251;28;20044;-61
2022/12/15 08:19:38;;;;;;;42.45;27.48;;;;;;;-2.47;63.61;100812.38;5029536;28;20041;-61
2022/12/15 08:22:03;;;;;;;42.85;27.90;;;;;;;-2.47;64.07;100817.81;5029930;28;20080;-61
2022/12/15 08:24:29;;;;;;;44.35;27.58;;;;;;;-2.46;63.48;100813.22;5028570;28;20323;-61
2022/12/15 08:26:57;;;;;;;43.35;28.45;;;;;;;-2.47;63.93;100820.53;5026264;28;20392;-61
2022/12/15 08:29:22;;;;;;;46.35;29.25;;;;;;;-2.45;63.71;100817.63;5029933;28;20427;-61
2022/12/15 08:31:47;;;;;;;43.30;28.02;;;;;;;-2.47;63.48;100825.97;5030719;28;20109;-61
2022/12/15 08:34:13;;;;;;;44.17;29.48;;;;;;;-2.47;63.95;100815.09;5027607;28;20025;-61
2022/12/15 08:36:38;;;;;;;43.55;28.80;;;;;;;-2.47;64.00;100816.97;5028449;28;20060;-61
2022/12/15 08:39:03;;;;;;;45.33;28.20;;;;;;;-2.44;64.09;100813.88;5031246;28;20128;-61
2022/12/15 08:41:31;;;;;;;42.05;27.88;;;;;;;-2.37;64.12;100814.91;5030273;28;20034;-61
2022/12/15 08:43:58;;;;;;;47.40;28.23;;;;;;;-2.34;63.96;100813.72;5029984;28;20520;-61
2022/12/15 08:46:30;;;;;;;50.28;29.33;;;;;;;-2.35;64.01;100820.19;5030317;28;20504;-61
2022/12/15 08:48:59;;;;;;;47.20;28.35;;;;;;;-2.27;63.97;100814.75;5030750;28;20033;-61
2022/12/15 08:51:27;;;;;;;44.28;29.48;;;;;;;-2.25;64.00;100818.97;5019752;28;20079;-61
2022/12/15 08:53:54;;;;;;;52.80;29.77;;;;;;;-2.24;64.02;100822.53;5022800;28;20040;-60
2022/12/15 08:56:21;;;;;;;45.55;29.48;;;;;;;-2.22;63.80;100828.66;5025357;28;20034;-61
2022/12/15 08:58:48;;;;;;;43.22;28.27;;;;;;;-2.20;63.96;100831.19;5027483;28;20393;-60
2022/12/15 09:01:17;;;;;;;41.90;28.13;;;;;;;-2.19;64.36;100832.94;5029113;28;20025;-61
2022/12/15 09:03:42;;;;;;;46.05;29.38;;;;;;;-2.17;64.33;100841.75;5024197;28;20575;-61
2022/12/15 09:06:13;;;;;;;44.55;29.05;;;;;;;-2.15;64.33;100840.56;5020826;28;20040;-61
2022/12/15 09:08:41;;;;;;;45.53;29.30;;;;;;;-2.11;64.26;100857.41;5023652;28;20082;-60
2022/12/15 09:11:07;;;;;;;49.75;32.33;;;;;;;-2.12;64.38;100850.22;5019473;28;20029;-61
2022/12/15 09:13:33;;;;;;;46.92;30.02;;;;;;;-2.08;64.42;100862.50;5018417;28;20032;-60
2022/12/15 09:16:12;;;;;;;51.03;33.47;;;;;;;-2.04;64.79;100861.97;5024144;28;20137;-60
2022/12/15 09:18:40;;;;;;;45.67;31.70;;;;;;;-2.01;64.19;100864.34;5025008;28;20033;-60
2022/12/15 09:21:10;;;;;;;51.20;31.30;;;;;;;-2.02;64.52;100859.91;5033135;28;20901;-61
2022/12/15 09:23:35;;;;;;;45.92;31.17;;;;;;;-1.97;64.59;100859.41;5034266;28;20035;-61
2022/12/15 09:26:03;;;;;;;46.45;32.42;;;;;;;-1.95;64.41;100875.56;5031445;28;20041;-62
2022/12/15 09:28:29;;;;;;;44.67;29.15;;;;;;;-1.92;64.57;100878.81;5027002;28;20063;-60
2022/12/15 09:31:02;;;;;;;44.83;28.70;;;;;;;-1.84;65.02;100881.50;5026699;28;20449;-60
2022/12/15 09:33:27;;;;;;;49.30;29.70;;;;;;;-1.77;64.70;100890.69;5025018;28;20064;-60
2022/12/15 09:35:53;;;;;;;42.45;29.33;;;;;;;-1.67;64.49;100886.94;5024838;28;20085;-61
2022/12/15 09:38:18;;;;;;;49.17;31.25;;;;;;;-1.61;64.45;100888.94;5023243;28;20029;-63
2022/12/15 09:40:43;;;;;;;46.70;30.42;;;;;;;-1.56;64.01;100900.19;5024094;28;20034;-61
2022/12/15 09:43:15;;;;;;;46.70;31.23;;;;;;;-1.52;64.08;100896.09;5026892;28;20030;-61
2022/12/15 09:45:44;;;;;;;48.55;31.83;;;;;;;-1.45;64.26;100897.09;5026237;28;20037;-61
2022/12/15 09:48:16;;;;;;;48.22;31.15;;;;;;;-1.38;64.08;100895.34;5027225;28;20033;-61
2022/12/15 09:50:44;;;;;;;46.03;31.42;;;;;;;-1.28;64.61;100896.03;5026127;28;20041;-61
2022/12/15 09:53:12;;;;;;;62.22;36.40;;;;;;;-1.18;64.45;100901.25;5023072;28;20033;-62
2022/12/15 09:55:38;;;;;;;63.55;35.97;;;;;;;-1.05;64.21;100908.88;5024345;28;20107;-61
2022/12/15 09:58:09;;;;;;;44.97;29.83;;;;;;;-0.87;63.68;100906.75;5025224;28;20076;-61
2022/12/15 10:00:54;;;;;;;46.15;30.67;;;;;;;-0.68;63.57;100908.19;5040890;28;20120;-60
2022/12/15 10:03:34;;;;;;;46.08;30.83;;;;;;;-0.49;63.17;100898.72;5017028;28;20099;-62
2022/12/15 10:06:34;;;;;;;44.53;29.83;;;;;;;-0.28;62.82;100901.63;5027260;28;20060;-61
2022/12/15 10:09:21;;;;;;;47.03;32.47;;;;;;;-0.14;62.69;100896.44;5011474;28;20494;-61
2022/12/15 10:11:54;;;;;;;41.03;29.33;;;;;;;0.05;62.00;100898.69;5009255;28;20496;-62
2022/12/15 10:14:38;;;;;;;43.75;29.15;;;;;;;0.17;61.33;100894.47;5008497;28;20501;-62
2022/12/15 10:17:32;;;;;;;42.28;28.27;;;;;;;0.33;61.50;100904.41;5025412;28;20052;-61
2022/12/15 10:20:18;;;;;;;44.95;28.73;;;;;;;0.45;61.25;100894.72;5029855;28;20037;-63
2022/12/15 10:22:44;;;;;;;48.00;31.67;;;;;;;0.56;60.67;100889.84;5031524;28;20037;-63
2022/12/15 10:25:18;;;;;;;54.60;31.52;;;;;;;0.66;61.09;100887.66;5023423;28;20033;-63
2022/12/15 10:28:05;;;;;;;73.03;37.63;;;;;;;0.76;61.17;100890.13;5041202;28;20489;-61
2022/12/15 10:30:30;;;;;;;79.82;39.05;;;;;;;0.81;60.99;100890.41;5039552;28;20041;-61
2022/12/15 10:33:15;;;;;;;54.95;32.15;;;;;;;0.91;61.07;100896.47;5050242;28;20025;-61
2022/12/15 10:35:42;;;;;;;49.85;31.38;;;;;;;0.96;60.85;100899.47;5025709;28;20041;-61
2022/12/15 10:38:23;;;;;;;49.28;31.52;;;;;;;1.05;60.55;100902.94;5032558;28;20041;-61
2022/12/15 10:40:57;;;;;;;44.42;31.20;;;;;;;1.12;60.48;100899.25;5032972;28;20495;-61
2022/12/15 10:43:22;;;;;;;44.38;28.70;;;;;;;1.17;60.32;100895.94;5030296;28;20033;-61
2022/12/15 10:45:49;;;;;;;43.00;29.88;;;;;;;1.23;60.12;100900.66;5032148;28;20033;-61
2022/12/15 10:48:18;;;;;;;42.97;28.95;;;;;;;1.28;59.91;100897.34;5037141;28;20113;-62
2022/12/15 10:50:47;;;;;;;44.72;30.27;;;;;;;1.30;60.61;100895.25;5048876;28;20082;-60
2022/12/15 10:53:38;;;;;;;42.45;28.88;;;;;;;1.32;60.33;100899.50;5044378;28;20029;-60
2022/12/15 10:56:06;;;;;;;44.00;28.38;;;;;;;1.30;60.26;100893.41;5036098;28;20083;-62
2022/12/15 10:58:31;;;;;;;45.67;30.65;;;;;;;1.33;60.75;100893.00;5041817;28;20084;-60
2022/12/15 11:01:14;;;;;;;41.85;28.92;;;;;;;1.38;60.68;100892.44;5025361;28;20061;-60
2022/12/15 11:03:42;;;;;;;44.80;29.17;;;;;;;1.41;60.38;100901.06;5032054;28;20033;-61
2022/12/15 11:06:15;;;;;;;44.78;29.13;;;;;;;1.40;60.51;100893.91;5037915;28;20053;-61
2022/12/15 11:08:42;;;;;;;47.00;30.70;;;;;;;1.42;60.74;100896.47;5025537;28;20021;-61
2022/12/15 11:14:22;;;;;;;43.83;29.40;;;;;;;1.40;60.25;100901.28;5033525;28;20071;-60
2022/12/15 11:16:58;;;;;;;41.28;28.40;;;;;;;1.37;59.91;100896.19;5048606;28;20043;-60
2022/12/15 11:19:30;;;;;;;39.75;27.80;;;;;;;1.36;60.10;100894.50;5038887;28;20044;-58
2022/12/15 11:22:04;;;;;;;44.35;28.65;;;;;;;1.36;60.72;100887.16;5033441;28;20432;-58
2022/12/15 11:24:40;;;;;;;45.22;28.35;;;;;;;1.36;60.33;100886.28;5042613;28;20029;-59
2022/12/15 11:27:19;;;;;;;41.70;28.75;;;;;;;1.32;60.46;100877.63;5045769;28;20382;-58
2022/12/15 11:30:12;;;;;;;45.53;30.73;;;;;;;1.33;60.92;100883.94;5038744;28;20048;-59
2022/12/15 11:32:41;;;;;;;41.83;28.40;;;;;;;1.33;60.31;100884.78;5013378;28;20092;-59
2022/12/15 11:35:20;;;;;;;42.35;29.35;;;;;;;1.34;60.71;100888.41;5036791;28;20560;-58
2022/12/15 11:37:54;;;;;;;42.80;29.80;;;;;;;1.32;60.49;100891.31;5018402;28;20046;-62
2022/12/15 11:40:33;;;;;;;42.67;28.58;;;;;;;1.32;60.70;100893.19;5028603;28;20068;-57
2022/12/15 11:43:20;;;;;;;40.85;28.38;;;;;;;1.32;60.83;100890.47;5030626;28;20029;-59
2022/12/15 11:46:07;;;;;;;37.25;28.10;;;;;;;1.33;60.92;100889.41;5028890;28;20060;-58
2022/12/15 11:49:01;;;;;;;42.70;28.27;;;;;;;1.32;61.22;100887.72;5044417;28;20042;-58
2022/12/15 11:51:56;;;;;;;42.67;29.80;;;;;;;1.29;61.28;100883.47;5028138;28;20514;-59
2022/12/15 11:54:28;;;;;;;43.70;28.73;;;;;;;1.29;61.20;100888.09;5030150;28;20389;-60
2022/12/15 11:57:18;;;;;;;41.50;28.98;;;;;;;1.30;60.59;100879.72;5011528;28;20117;-58
2022/12/15 11:59:58;;;;;;;44.75;29.20;;;;;;;1.32;61.51;100876.78;5010622;28;20489;-59
2022/12/15 12:02:29;;;;;;;41.63;28.60;;;;;;;1.30;60.56;100877.00;5027124;28;20105;-57
2022/12/15 12:05:00;;;;;;;43.40;29.50;;;;;;;1.33;61.53;100878.47;5047245;28;20159;-58
2022/12/15 12:07:34;;;;;;;40.42;29.20;;;;;;;1.34;60.73;100871.97;5036498;28;20021;-58
2022/12/15 12:10:27;;;;;;;41.38;29.23;;;;;;;1.38;61.75;100867.81;5022564;28;20025;-57
2022/12/15 12:13:11;;;;;;;43.72;30.02;;;;;;;1.38;61.21;100865.09;5035074;28;20039;-61
2022/12/15 12:15:58;;;;;;;45.80;27.83;;;;;;;1.38;61.12;100865.94;5020416;28;20033;-59
2022/12/15 12:18:31;;;;;;;38.17;26.88;;;;;;;1.38;60.79;100856.88;5047329;28;20045;-59
2022/12/15 12:21:10;;;;;;;43.90;28.02;;;;;;;1.40;60.85;100852.91;5045818;28;20476;-59
2022/12/15 12:23:55;;;;;;;40.25;28.38;;;;;;;1.41;61.74;100854.59;5039473;28;20029;-59
2022/12/15 12:26:28;;;;;;;41.10;29.30;;;;;;;1.43;61.21;100852.50;5039384;28;20032;-60
2022/12/15 12:29:06;;;;;;;44.78;30.63;;;;;;;1.46;61.46;100852.13;5034465;28;20029;-59
2022/12/15 12:31:52;;;;;;;41.38;29.02;;;;;;;1.46;61.52;100840.34;5047662;28;20507;-58
2022/12/15 12:34:34;;;;;;;44.67;30.45;;;;;;;1.47;61.84;100848.34;5046058;28;20064;-59
2022/12/15 12:37:15;;;;;;;41.13;28.93;;;;;;;1.49;61.83;100845.41;5047577;28;20076;-60
2022/12/15 12:39:42;;;;;;;41.40;29.98;;;;;;;1.48;61.56;100854.66;5033533;28;20299;-61
2022/12/15 12:42:24;;;;;;;43.97;30.83;;;;;;;1.48;61.76;100857.41;5046390;28;20044;-60
2022/12/15 12:44:49;;;;;;;42.75;30.98;;;;;;;1.46;61.71;100860.34;5029108;28;20116;-60
2022/12/15 12:47:24;;;;;;;45.72;31.02;;;;;;;1.48;61.38;100866.44;5029686;28;20111;-60
2022/12/15 12:49:54;;;;;;;43.92;30.95;;;;;;;1.46;61.33;100852.13;5045879;28;20387;-57
2022/12/15 12:52:26;;;;;;;44.20;31.20;;;;;;;1.50;61.57;100852.59;5045776;28;20017;-59
2022/12/15 12:54:57;;;;;;;46.80;31.60;;;;;;;1.52;62.36;100847.78;5027063;28;20465;-59
2022/12/15 12:57:38;;;;;;;47.33;31.40;;;;;;;1.53;61.79;100838.50;5029723;28;20034;-59
2022/12/15 13:00:06;;;;;;;43.40;29.70;;;;;;;1.54;61.67;100840.22;5023922;28;20033;-59
2022/12/15 13:02:36;;;;;;;42.42;29.75;;;;;;;1.56;61.63;100835.41;5028336;28;20037;-59
2022/12/15 13:05:25;;;;;;;43.70;30.08;;;;;;;1.58;61.91;100832.47;5018165;28;20071;-60
2022/12/15 13:08:06;;;;;;;45.42;30.95;;;;;;;1.59;62.34;100832.28;5050004;28;20484;-59
2022/12/15 13:10:35;;;;;;;40.28;29.90;;;;;;;1.58;61.97;100822.38;5030737;28;20037;-60
2022/12/15 13:13:15;;;;;;;47.17;30.02;;;;;;;1.61;62.06;100822.00;5025848;28;20086;-59
2022/12/15 13:15:45;;;;;;;45.15;30.38;;;;;;;1.59;62.32;100821.34;5028182;28;20036;-58
2022/12/15 13:18:19;;;;;;;46.25;30.85;;;;;;;1.59;62.83;100812.28;5026401;28;20040;-59
2022/12/15 13:20:47;;;;;;;42.15;29.30;;;;;;;1.59;62.77;100804.91;5025105;28;20076;-58
2022/12/15 13:23:18;;;;;;;49.47;31.15;;;;;;;1.58;62.80;100805.97;5030530;28;20033;-60
2022/12/15 13:25:56;;;;;;;44.60;33.47;;;;;;;1.59;62.39;100806.81;5034560;28;20091;-59
2022/12/15 13:28:41;;;;;;;44.25;32.90;;;;;;;1.61;62.81;100805.59;5028506;28;20060;-59
2022/12/15 13:31:16;;;;;;;51.00;35.28;;;;;;;1.60;62.23;100798.41;5028598;28;20060;-59
2022/12/15 13:33:51;;;;;;;47.92;34.67;;;;;;;1.59;62.08;100804.91;5037674;28;20037;-61
2022/12/15 13:36:35;;;;;;;53.38;36.38;;;;;;;1.58;62.70;100792.28;5035851;28;20068;-60
2022/12/15 13:39:03;;;;;;;47.38;35.05;;;;;;;1.55;62.19;100794.56;5024714;28;20397;-62
2022/12/15 13:41:32;;;;;;;49.13;35.22;;;;;;;1.56;62.21;100794.34;5035482;28;20032;-59
2022/12/15 13:43:59;;;;;;;46.38;34.20;;;;;;;1.57;62.91;100792.47;5027896;28;20486;-61
2022/12/15 13:46:31;;;;;;;49.28;35.72;;;;;;;1.58;62.60;100789.56;5026225;28;20030;-60
2022/12/15 13:49:11;;;;;;;48.00;33.78;;;;;;;1.63;63.55;100791.69;5029987;28;20064;-60
2022/12/15 13:51:41;;;;;;;45.72;33.70;;;;;;;1.64;62.90;100791.50;5020016;28;20511;-61
2022/12/15 13:54:06;;;;;;;48.67;34.58;;;;;;;1.65;62.88;100789.59;5029777;28;20085;-61
2022/12/15 13:57:00;;;;;;;46.15;33.15;;;;;;;1.66;63.07;100786.69;5013333;28;20121;-61